Time;durP1;ratioP1;P1;durP2;ratioP2;P2;SDS_P1;SDS_P2;PMS_P1;PMS_P2;Temp;Humidity;BMP_temperature;BMP_pressure;BME280_temperature;BME280_humidity;BME280_pressure;Samples;Min_cycle;Max_cycle;Signal;HPM_P1;HPM_P2
2024/01/26 00:01:17;;;;;;;1.45;1.20;;;;;;;;;;5033941;28;20033;-62
2024/01/26 00:03:43;;;;;;;1.05;1.05;;;;;;;;;;5057086;28;20555;-61
2024/01/26 00:06:10;;;;;;;1.58;1.30;;;;;;;;;;5036490;28;20523;-62
2024/01/26 00:08:36;;;;;;;3.22;1.48;;;;;;;;;;5054476;28;20048;-62
2024/01/26 00:11:02;;;;;;;1.15;1.15;;;;;;;;;;5053290;28;20079;-67
2024/01/26 00:13:28;;;;;;;1.75;1.33;;;;;;;;;;5049280;28;20032;-62
2024/01/26 00:15:54;;;;;;;4.40;1.48;;;;;;;;;;5048141;28;20722;-64
2024/01/26 00:18:21;;;;;;;1.67;1.50;;;;;;;;;;5049294;28;20283;-63
2024/01/26 00:20:47;;;;;;;1.92;1.33;;;;;;;;;;5054117;28;20043;-62
2024/01/26 00:23:13;;;;;;;2.13;1.50;;;;;;;;;;5034662;28;20028;-65
2024/01/26 00:25:39;;;;;;;5.97;1.35;;;;;;;;;;5055009;28;20070;-62
2024/01/26 00:28:06;;;;;;;1.20;1.10;;;;;;;;;;5032098;28;20034;-63
2024/01/26 00:30:32;;;;;;;2.45;1.00;;;;;;;;;;5050613;28;20568;-62
2024/01/26 00:32:59;;;;;;;1.05;0.93;;;;;;;;;;5045088;28;20036;-63
2024/01/26 00:35:26;;;;;;;2.45;1.38;;;;;;;;;;5033730;28;20033;-63
2024/01/26 00:37:52;;;;;;;3.67;1.30;;;;;;;;;;5052205;28;20033;-62
2024/01/26 00:40:19;;;;;;;1.20;1.10;;;;;;;;;;5050700;28;20488;-62
2024/01/26 00:42:45;;;;;;;1.00;1.00;;;;;;;;;;5048626;28;20017;-62
2024/01/26 00:45:11;;;;;;;1.15;1.15;;;;;;;;;;5050290;28;20029;-64
2024/01/26 00:47:37;;;;;;;0.95;0.95;;;;;;;;;;5046678;28;20546;-61
2024/01/26 00:50:04;;;;;;;3.17;1.48;;;;;;;;;;5047565;28;20408;-62
2024/01/26 00:52:30;;;;;;;1.10;1.10;;;;;;;;;;5025918;28;20501;-62
2024/01/26 00:54:56;;;;;;;1.85;1.30;;;;;;;;;;5044262;28;20033;-63
2024/01/26 00:57:23;;;;;;;1.50;1.20;;;;;;;;;;5049753;28;20029;-62
2024/01/26 00:59:49;;;;;;;1.25;1.15;;;;;;;;;;5045154;28;20028;-62
2024/01/26 01:02:15;;;;;;;3.78;1.67;;;;;;;;;;5051148;28;20033;-64
2024/01/26 01:04:42;;;;;;;2.45;1.33;;;;;;;;;;5050470;28;20112;-65
2024/01/26 01:07:08;;;;;;;1.13;1.13;;;;;;;;;;5056093;28;20346;-64
2024/01/26 01:09:34;;;;;;;3.30;1.50;;;;;;;;;;5051199;28;20037;-65
2024/01/26 01:12:02;;;;;;;1.88;1.50;;;;;;;;;;5054712;28;20032;-62
2024/01/26 01:14:28;;;;;;;3.15;1.35;;;;;;;;;;5051719;28;20056;-62
2024/01/26 01:16:56;;;;;;;3.10;1.50;;;;;;;;;;5037859;28;20400;-62
2024/01/26 01:19:22;;;;;;;1.27;1.17;;;;;;;;;;5054463;28;20031;-63
2024/01/26 01:21:48;;;;;;;1.10;1.10;;;;;;;;;;5044326;28;20036;-62
2024/01/26 01:24:15;;;;;;;1.50;1.40;;;;;;;;;;5042094;28;20550;-63
2024/01/26 01:26:41;;;;;;;1.75;1.27;;;;;;;;;;5051518;28;20032;-62
2024/01/26 01:29:08;;;;;;;1.45;1.35;;;;;;;;;;5055901;28;20020;-62
2024/01/26 01:31:34;;;;;;;1.48;1.38;;;;;;;;;;5054721;28;20024;-62
2024/01/26 01:34:00;;;;;;;2.35;1.38;;;;;;;;;;5035519;28;20036;-68
2024/01/26 01:36:27;;;;;;;1.83;1.65;;;;;;;;;;5050282;28;20040;-69
2024/01/26 01:38:53;;;;;;;1.50;1.20;;;;;;;;;;5041367;28;20037;-69
2024/01/26 01:41:19;;;;;;;1.00;1.00;;;;;;;;;;5051227;28;20033;-68
2024/01/26 01:43:53;;;;;;;1.13;1.05;;;;;;;;;;5045185;28;20033;-69
2024/01/26 01:46:19;;;;;;;1.20;1.20;;;;;;;;;;5052745;28;20035;-69
2024/01/26 01:48:45;;;;;;;1.13;1.13;;;;;;;;;;5030021;28;20021;-68
2024/01/26 01:51:13;;;;;;;1.02;1.02;;;;;;;;;;5036299;28;20035;-69
2024/01/26 01:53:39;;;;;;;3.05;1.33;;;;;;;;;;5045103;28;20387;-69
2024/01/26 01:56:06;;;;;;;1.27;1.20;;;;;;;;;;5033414;28;20028;-69
2024/01/26 01:58:33;;;;;;;2.30;1.08;;;;;;;;;;5044721;28;20049;-69
2024/01/26 02:01:00;;;;;;;2.35;1.17;;;;;;;;;;5047985;28;20069;-68
2024/01/26 02:03:26;;;;;;;0.88;0.88;;;;;;;;;;5045939;28;20063;-68
2024/01/26 02:05:52;;;;;;;1.33;1.25;;;;;;;;;;5053873;28;20033;-69
2024/01/26 02:08:18;;;;;;;1.13;1.13;;;;;;;;;;5029640;28;20446;-67
2024/01/26 02:10:44;;;;;;;1.67;1.48;;;;;;;;;;5049003;28;20090;-69
2024/01/26 02:13:11;;;;;;;1.55;1.10;;;;;;;;;;5043689;28;20511;-68
2024/01/26 02:15:37;;;;;;;2.95;1.15;;;;;;;;;;5046374;28;20033;-69
2024/01/26 02:18:04;;;;;;;0.98;0.98;;;;;;;;;;5049125;28;20635;-68
2024/01/26 02:20:30;;;;;;;1.17;1.17;;;;;;;;;;5044070;28;20024;-69
2024/01/26 02:22:56;;;;;;;3.05;1.60;;;;;;;;;;5029316;28;20028;-69
2024/01/26 02:25:23;;;;;;;1.27;1.25;;;;;;;;;;5048162;28;20035;-68
2024/01/26 02:27:51;;;;;;;10.40;1.42;;;;;;;;;;5037075;28;20415;-69
2024/01/26 02:30:18;;;;;;;4.43;1.30;;;;;;;;;;5045949;28;20064;-68
2024/01/26 02:32:44;;;;;;;0.93;0.93;;;;;;;;;;5033396;28;20033;-68
2024/01/26 02:35:11;;;;;;;3.33;1.50;;;;;;;;;;5053072;28;20024;-69
2024/01/26 02:37:40;;;;;;;2.15;1.10;;;;;;;;;;5050052;28;20056;-69
2024/01/26 02:40:07;;;;;;;1.15;1.02;;;;;;;;;;5051374;28;20033;-68
2024/01/26 02:42:33;;;;;;;1.25;1.17;;;;;;;;;;5034104;28;20515;-69
2024/01/26 02:45:00;;;;;;;1.23;1.20;;;;;;;;;;5042634;28;20603;-68
2024/01/26 02:47:27;;;;;;;1.20;1.20;;;;;;;;;;5048681;28;20052;-69
2024/01/26 02:49:53;;;;;;;1.40;1.40;;;;;;;;;;5040490;28;20437;-69
2024/01/26 02:52:20;;;;;;;4.03;1.17;;;;;;;;;;5026989;28;20040;-68
2024/01/26 02:54:47;;;;;;;2.50;1.10;;;;;;;;;;5033185;28;20033;-68
2024/01/26 02:57:13;;;;;;;1.92;1.77;;;;;;;;;;5054315;28;20028;-68
2024/01/26 02:59:40;;;;;;;1.35;1.35;;;;;;;;;;5055684;28;20045;-69
2024/01/26 03:02:07;;;;;;;1.48;1.30;;;;;;;;;;5051762;28;20032;-68
2024/01/26 03:04:33;;;;;;;4.50;1.38;;;;;;;;;;5046425;28;20048;-68
2024/01/26 03:07:00;;;;;;;2.58;1.08;;;;;;;;;;5037322;28;20029;-68
2024/01/26 03:09:26;;;;;;;1.15;1.15;;;;;;;;;;5056467;28;20864;-67
2024/01/26 03:11:52;;;;;;;2.17;1.23;;;;;;;;;;5054617;28;20020;-68
2024/01/26 03:14:18;;;;;;;2.63;1.35;;;;;;;;;;5042267;28;20043;-68
2024/01/26 03:16:45;;;;;;;1.23;1.23;;;;;;;;;;5049365;28;20488;-68
2024/01/26 03:19:11;;;;;;;2.05;1.25;;;;;;;;;;5044719;28;20056;-68
2024/01/26 03:21:44;;;;;;;1.30;1.25;;;;;;;;;;5049598;28;20033;-68
2024/01/26 03:24:10;;;;;;;1.27;1.27;;;;;;;;;;5053306;28;20555;-67
2024/01/26 03:26:37;;;;;;;1.10;1.10;;;;;;;;;;5057881;28;20660;-68
2024/01/26 03:29:04;;;;;;;2.40;1.25;;;;;;;;;;5055230;28;20074;-68
2024/01/26 03:31:30;;;;;;;1.67;1.40;;;;;;;;;;5048706;28;20027;-68
2024/01/26 03:33:56;;;;;;;4.38;1.55;;;;;;;;;;5057055;28;20412;-67
2024/01/26 03:36:22;;;;;;;1.10;1.10;;;;;;;;;;5016782;28;20028;-68
2024/01/26 03:38:48;;;;;;;1.20;1.20;;;;;;;;;;5050899;28;20028;-67
2024/01/26 03:41:14;;;;;;;3.47;1.67;;;;;;;;;;5043065;28;20032;-67
2024/01/26 03:43:40;;;;;;;2.03;1.73;;;;;;;;;;5054790;28;20480;-68
2024/01/26 03:46:07;;;;;;;2.00;1.90;;;;;;;;;;5055374;28;20036;-68
2024/01/26 03:48:33;;;;;;;7.57;1.67;;;;;;;;;;5052438;28;20028;-68
2024/01/26 03:50:59;;;;;;;1.80;1.70;;;;;;;;;;5050622;28;20021;-68
2024/01/26 03:53:26;;;;;;;1.30;1.25;;;;;;;;;;5050272;28;20569;-68
2024/01/26 03:55:55;;;;;;;7.25;1.98;;;;;;;;;;5036959;28;20180;-67
2024/01/26 03:58:22;;;;;;;3.13;1.38;;;;;;;;;;5051041;28;20407;-68
2024/01/26 04:00:48;;;;;;;3.42;1.55;;;;;;;;;;5066542;28;20447;-67
2024/01/26 04:03:14;;;;;;;5.88;1.42;;;;;;;;;;5073719;28;20035;-67
2024/01/26 04:05:40;;;;;;;2.03;1.52;;;;;;;;;;5073615;28;20464;-67
2024/01/26 04:08:06;;;;;;;4.75;1.77;;;;;;;;;;5079849;28;20234;-68
2024/01/26 04:10:32;;;;;;;1.13;0.98;;;;;;;;;;5068460;28;20033;-68
2024/01/26 04:12:58;;;;;;;4.30;1.40;;;;;;;;;;5063665;28;20552;-67
2024/01/26 04:15:25;;;;;;;1.58;1.48;;;;;;;;;;5067653;28;20547;-68
2024/01/26 04:17:51;;;;;;;2.38;1.75;;;;;;;;;;5081361;28;20788;-69
2024/01/26 04:20:17;;;;;;;2.63;1.60;;;;;;;;;;5072678;28;20032;-67
2024/01/26 04:22:43;;;;;;;2.17;1.42;;;;;;;;;;5066899;28;20032;-67
2024/01/26 04:25:10;;;;;;;3.88;1.85;;;;;;;;;;5071569;28;20023;-67
2024/01/26 04:27:36;;;;;;;3.78;1.42;;;;;;;;;;5077193;28;20222;-67
2024/01/26 04:30:03;;;;;;;1.52;1.42;;;;;;;;;;5079568;28;20427;-67
2024/01/26 04:32:29;;;;;;;4.80;2.03;;;;;;;;;;5074828;28;20243;-67
2024/01/26 04:34:55;;;;;;;1.67;1.50;;;;;;;;;;5071219;28;20021;-67
2024/01/26 04:37:24;;;;;;;2.42;1.30;;;;;;;;;;5067542;28;20500;-67
2024/01/26 04:39:51;;;;;;;1.17;1.10;;;;;;;;;;5073681;28;20031;-67
2024/01/26 04:42:18;;;;;;;1.77;1.60;;;;;;;;;;5072087;28;20553;-67
2024/01/26 04:44:44;;;;;;;3.67;1.70;;;;;;;;;;5071881;28;20028;-67
2024/01/26 04:47:10;;;;;;;8.75;2.03;;;;;;;;;;5073902;28;20031;-67
2024/01/26 04:49:37;;;;;;;2.25;2.10;;;;;;;;;;5074273;28;20480;-67
2024/01/26 04:52:03;;;;;;;2.53;2.33;;;;;;;;;;5071278;28;20052;-67
2024/01/26 04:54:29;;;;;;;1.65;1.42;;;;;;;;;;5073644;28;20040;-67
2024/01/26 04:56:56;;;;;;;1.48;1.33;;;;;;;;;;5076623;28;20177;-67
2024/01/26 04:59:22;;;;;;;7.38;1.85;;;;;;;;;;5058796;28;20565;-67
2024/01/26 05:01:48;;;;;;;2.92;1.70;;;;;;;;;;5057176;28;20392;-68
2024/01/26 05:04:15;;;;;;;12.38;2.40;;;;;;;;;;5042295;28;20488;-67
2024/01/26 05:06:42;;;;;;;3.47;1.80;;;;;;;;;;5056170;28;21012;-67
2024/01/26 05:09:09;;;;;;;9.05;1.63;;;;;;;;;;5059651;28;20358;-67
2024/01/26 05:11:35;;;;;;;3.63;1.80;;;;;;;;;;5058149;28;20037;-67
2024/01/26 05:14:01;;;;;;;3.35;1.60;;;;;;;;;;5040855;28;20028;-67
2024/01/26 05:16:27;;;;;;;2.92;1.70;;;;;;;;;;5055237;28;20036;-67
2024/01/26 05:18:53;;;;;;;12.68;2.05;;;;;;;;;;5059118;28;20059;-66
2024/01/26 05:21:19;;;;;;;2.05;1.80;;;;;;;;;;5058523;28;20084;-67
2024/01/26 05:23:46;;;;;;;5.45;1.83;;;;;;;;;;5050256;28;20408;-67
2024/01/26 05:26:12;;;;;;;4.68;2.55;;;;;;;;;;5053448;28;20056;-67
2024/01/26 05:28:39;;;;;;;7.47;1.88;;;;;;;;;;5052104;28;20450;-67
2024/01/26 05:31:05;;;;;;;8.20;1.95;;;;;;;;;;5030214;28;20031;-67
2024/01/26 05:33:31;;;;;;;12.82;2.63;;;;;;;;;;5051636;28;20028;-67
2024/01/26 05:35:57;;;;;;;4.05;1.65;;;;;;;;;;5054784;28;20021;-67
2024/01/26 05:38:23;;;;;;;3.45;2.15;;;;;;;;;;5052364;28;20033;-68
2024/01/26 05:40:50;;;;;;;4.47;1.65;;;;;;;;;;5055702;28;20039;-67
2024/01/26 05:43:16;;;;;;;5.90;1.83;;;;;;;;;;5052880;28;20032;-67
2024/01/26 05:45:42;;;;;;;7.13;2.13;;;;;;;;;;5037128;28;20021;-67
2024/01/26 05:48:08;;;;;;;9.32;2.00;;;;;;;;;;5059892;28;20333;-67
2024/01/26 05:50:35;;;;;;;5.90;1.83;;;;;;;;;;5056062;28;20055;-67
2024/01/26 05:53:02;;;;;;;8.70;2.47;;;;;;;;;;5049894;28;20028;-67
2024/01/26 05:55:28;;;;;;;11.15;2.33;;;;;;;;;;5053230;28;20032;-68
2024/01/26 05:57:54;;;;;;;3.38;1.60;;;;;;;;;;5052182;28;20074;-68
2024/01/26 06:00:20;;;;;;;7.82;1.83;;;;;;;;;;5056826;28;20438;-67
2024/01/26 06:02:46;;;;;;;11.95;2.15;;;;;;;;;;5032048;28;20032;-67
2024/01/26 06:05:13;;;;;;;2.58;1.45;;;;;;;;;;5052311;28;20021;-67
2024/01/26 06:07:43;;;;;;;6.03;2.08;;;;;;;;;;5060892;28;20246;-67
2024/01/26 06:10:09;;;;;;;4.80;1.42;;;;;;;;;;5048167;28;20108;-67
2024/01/26 06:12:40;;;;;;;1.85;1.55;;;;;;;;;;5051347;28;20098;-67
2024/01/26 06:15:08;;;;;;;4.47;1.77;;;;;;;;;;5037322;28;20457;-67
2024/01/26 06:17:35;;;;;;;4.28;1.92;;;;;;;;;;5043140;28;20036;-67
2024/01/26 06:20:03;;;;;;;3.65;2.22;;;;;;;;;;5040242;28;20025;-67
2024/01/26 06:22:29;;;;;;;8.80;2.80;;;;;;;;;;5048576;28;20045;-68
2024/01/26 06:24:56;;;;;;;2.30;1.60;;;;;;;;;;5047386;28;20087;-67
2024/01/26 06:27:22;;;;;;;2.60;1.65;;;;;;;;;;5035734;28;20060;-68
2024/01/26 06:29:48;;;;;;;5.63;2.15;;;;;;;;;;5052218;28;20029;-67
2024/01/26 06:32:16;;;;;;;6.05;1.70;;;;;;;;;;5052111;28;20107;-67
2024/01/26 06:34:42;;;;;;;1.20;1.20;;;;;;;;;;5046102;28;20025;-67
2024/01/26 06:37:08;;;;;;;6.10;2.28;;;;;;;;;;5036222;28;20020;-67
2024/01/26 06:39:34;;;;;;;6.05;2.75;;;;;;;;;;5039284;28;20033;-68
2024/01/26 06:42:00;;;;;;;2.50;2.03;;;;;;;;;;5049699;28;20492;-68
2024/01/26 06:44:27;;;;;;;8.20;2.30;;;;;;;;;;5034792;28;20371;-68
2024/01/26 06:46:53;;;;;;;3.80;2.13;;;;;;;;;;5048513;28;20035;-67
2024/01/26 06:49:20;;;;;;;6.38;2.28;;;;;;;;;;5034530;28;20047;-68
2024/01/26 06:51:46;;;;;;;6.20;2.13;;;;;;;;;;5049897;28;21180;-67
2024/01/26 06:54:12;;;;;;;3.78;1.77;;;;;;;;;;5040929;28;20551;-67
2024/01/26 06:56:38;;;;;;;7.38;2.15;;;;;;;;;;5035439;28;20670;-67
2024/01/26 06:59:06;;;;;;;7.55;2.20;;;;;;;;;;5051763;28;20764;-67
2024/01/26 07:01:32;;;;;;;6.32;2.58;;;;;;;;;;5049295;28;20046;-67
2024/01/26 07:03:59;;;;;;;3.35;1.70;;;;;;;;;;5055324;28;20056;-67
2024/01/26 07:06:25;;;;;;;2.50;1.33;;;;;;;;;;5034527;28;20033;-67
2024/01/26 07:08:51;;;;;;;1.42;1.33;;;;;;;;;;5053222;28;20070;-67
2024/01/26 07:11:19;;;;;;;3.03;1.30;;;;;;;;;;5039631;28;20098;-67
2024/01/26 07:13:45;;;;;;;6.50;1.98;;;;;;;;;;5034813;28;20086;-67
2024/01/26 07:16:11;;;;;;;3.08;1.77;;;;;;;;;;5055036;28;20051;-67
2024/01/26 07:18:37;;;;;;;2.25;1.88;;;;;;;;;;5046889;28;20494;-67
2024/01/26 07:21:07;;;;;;;4.40;1.67;;;;;;;;;;5053208;28;20103;-67
2024/01/26 07:23:34;;;;;;;6.22;1.88;;;;;;;;;;5050920;28;20025;-67
2024/01/26 07:26:01;;;;;;;2.47;2.30;;;;;;;;;;5052633;28;20369;-67
2024/01/26 07:28:27;;;;;;;7.72;1.88;;;;;;;;;;5048761;28;20029;-67
2024/01/26 07:30:53;;;;;;;9.98;2.13;;;;;;;;;;5034109;28;20032;-68
2024/01/26 07:33:19;;;;;;;5.50;1.50;;;;;;;;;;5048927;28;20937;-66
2024/01/26 07:35:45;;;;;;;5.40;1.92;;;;;;;;;;5052258;28;20519;-69
2024/01/26 07:38:11;;;;;;;12.02;2.35;;;;;;;;;;5050355;28;20044;-66
2024/01/26 07:40:38;;;;;;;5.72;2.45;;;;;;;;;;5036342;28;20025;-66
2024/01/26 07:43:04;;;;;;;1.75;1.65;;;;;;;;;;5059208;28;20823;-66
2024/01/26 07:45:30;;;;;;;12.13;2.15;;;;;;;;;;5045697;28;20021;-66
2024/01/26 07:47:56;;;;;;;2.45;1.42;;;;;;;;;;5054385;28;20033;-66
2024/01/26 07:50:23;;;;;;;6.03;2.15;;;;;;;;;;5051050;28;20028;-66
2024/01/26 07:52:49;;;;;;;3.30;2.10;;;;;;;;;;5043022;28;20411;-67
2024/01/26 07:55:15;;;;;;;9.25;2.03;;;;;;;;;;5044650;28;20092;-66
2024/01/26 07:57:41;;;;;;;5.53;2.15;;;;;;;;;;5057882;28;20039;-65
2024/01/26 08:00:08;;;;;;;4.20;2.17;;;;;;;;;;5081510;28;20039;-66
2024/01/26 08:02:35;;;;;;;5.20;2.13;;;;;;;;;;5074997;28;20040;-64
2024/01/26 08:05:01;;;;;;;6.53;2.10;;;;;;;;;;5054651;28;20042;-66
2024/01/26 08:07:27;;;;;;;6.28;1.60;;;;;;;;;;5070726;28;20498;-64
2024/01/26 08:09:54;;;;;;;9.57;1.70;;;;;;;;;;5081208;28;20051;-65
2024/01/26 08:12:20;;;;;;;3.60;1.70;;;;;;;;;;5080300;28;20028;-64
2024/01/26 08:14:46;;;;;;;7.60;2.67;;;;;;;;;;5062027;28;20023;-64
2024/01/26 08:17:13;;;;;;;4.43;1.55;;;;;;;;;;5061594;28;20040;-65
2024/01/26 08:19:39;;;;;;;6.65;1.65;;;;;;;;;;5081571;28;20279;-64
2024/01/26 08:22:05;;;;;;;1.50;1.40;;;;;;;;;;5080262;28;20113;-64
2024/01/26 08:24:32;;;;;;;5.13;2.20;;;;;;;;;;5064830;28;20027;-64
2024/01/26 08:26:58;;;;;;;3.28;1.60;;;;;;;;;;5072863;28;20032;-64
2024/01/26 08:29:26;;;;;;;2.28;1.65;;;;;;;;;;5079251;28;20040;-65
2024/01/26 08:31:53;;;;;;;7.20;1.80;;;;;;;;;;5076643;28;20019;-64
2024/01/26 08:34:20;;;;;;;5.65;1.65;;;;;;;;;;5076318;28;20055;-64
2024/01/26 08:36:47;;;;;;;8.25;2.15;;;;;;;;;;5060096;28;20300;-64
2024/01/26 08:39:13;;;;;;;3.72;1.38;;;;;;;;;;5057028;28;20496;-64
2024/01/26 08:41:43;;;;;;;9.05;3.25;;;;;;;;;;5065551;28;20400;-63
2024/01/26 08:44:09;;;;;;;3.10;1.60;;;;;;;;;;5078534;28;20033;-64
2024/01/26 08:46:35;;;;;;;2.30;1.75;;;;;;;;;;5073297;28;20020;-64
2024/01/26 08:49:02;;;;;;;6.95;2.08;;;;;;;;;;5062211;28;20020;-64
2024/01/26 08:51:30;;;;;;;9.95;1.90;;;;;;;;;;5081541;28;20031;-65
2024/01/26 08:53:56;;;;;;;10.02;2.00;;;;;;;;;;5057397;28;20058;-64
2024/01/26 08:56:22;;;;;;;6.95;1.83;;;;;;;;;;5075410;28;20492;-64
2024/01/26 08:58:49;;;;;;;3.50;2.00;;;;;;;;;;5069302;28;20048;-64
2024/01/26 09:01:15;;;;;;;5.15;1.80;;;;;;;;;;5071281;28;20387;-66
2024/01/26 09:03:41;;;;;;;7.53;2.60;;;;;;;;;;5074452;28;20042;-64
2024/01/26 09:06:08;;;;;;;2.90;1.83;;;;;;;;;;5071095;28;20038;-64
2024/01/26 09:08:34;;;;;;;3.10;2.25;;;;;;;;;;5071793;28;20101;-63
2024/01/26 09:11:00;;;;;;;2.97;2.47;;;;;;;;;;5080276;28;20042;-63
2024/01/26 09:23:23;;;;;;;4.88;1.75;;;;;;;;;;5071839;22;20546;-67
2024/01/26 09:25:49;;;;;;;9.40;2.72;;;;;;;;;;5051787;28;20032;-66
2024/01/26 09:28:15;;;;;;;1.50;1.40;;;;;;;;;;5060110;28;20029;-65
2024/01/26 09:30:41;;;;;;;2.22;1.85;;;;;;;;;;5059509;28;20021;-67
2024/01/26 09:33:07;;;;;;;2.13;1.92;;;;;;;;;;5062821;28;20035;-67
2024/01/26 09:35:33;;;;;;;20.80;2.20;;;;;;;;;;5059401;28;20051;-66
2024/01/26 09:38:00;;;;;;;3.55;1.75;;;;;;;;;;5056357;28;20127;-65
2024/01/26 09:40:26;;;;;;;8.68;2.33;;;;;;;;;;5063433;28;20032;-66
2024/01/26 09:42:52;;;;;;;6.75;1.90;;;;;;;;;;5065702;28;20025;-66
2024/01/26 09:45:20;;;;;;;1.70;1.60;;;;;;;;;;5064051;28;20043;-69
2024/01/26 09:47:48;;;;;;;2.22;2.03;;;;;;;;;;5060633;28;20395;-68
2024/01/26 09:50:16;;;;;;;5.38;2.30;;;;;;;;;;5061224;28;20104;-68
2024/01/26 09:52:43;;;;;;;5.57;2.20;;;;;;;;;;5064177;28;20175;-68
2024/01/26 09:55:10;;;;;;;13.52;2.35;;;;;;;;;;5059765;28;20032;-68
2024/01/26 09:57:37;;;;;;;7.45;2.13;;;;;;;;;;5058280;28;20032;-68
2024/01/26 10:00:07;;;;;;;1.92;1.80;;;;;;;;;;5059677;28;20115;-70
2024/01/26 10:02:37;;;;;;;4.22;1.88;;;;;;;;;;5065749;28;20035;-67
2024/01/26 10:05:03;;;;;;;5.45;1.95;;;;;;;;;;5063896;28;20032;-69
2024/01/26 10:07:29;;;;;;;5.53;2.03;;;;;;;;;;5060884;28;20121;-68
2024/01/26 10:09:56;;;;;;;6.63;2.05;;;;;;;;;;5056886;28;20606;-69
2024/01/26 10:12:23;;;;;;;7.53;2.40;;;;;;;;;;5057328;28;20020;-68
2024/01/26 10:14:50;;;;;;;3.28;2.05;;;;;;;;;;5060871;28;20109;-68
2024/01/26 10:17:19;;;;;;;8.45;2.22;;;;;;;;;;5060821;28;20371;-69
2024/01/26 10:19:45;;;;;;;4.35;1.88;;;;;;;;;;5061347;28;20464;-69
2024/01/26 10:22:12;;;;;;;7.10;2.38;;;;;;;;;;5057947;28;20024;-68
2024/01/26 10:24:38;;;;;;;3.80;2.42;;;;;;;;;;5059494;28;20032;-69
2024/01/26 10:27:04;;;;;;;7.93;2.13;;;;;;;;;;5057074;28;20095;-68
2024/01/26 10:29:32;;;;;;;5.10;1.92;;;;;;;;;;5057809;28;20057;-69
2024/01/26 10:31:58;;;;;;;21.63;3.75;;;;;;;;;;5055708;28;20115;-68
2024/01/26 10:34:25;;;;;;;7.72;2.33;;;;;;;;;;5060243;28;20032;-69
2024/01/26 10:36:52;;;;;;;3.88;1.98;;;;;;;;;;5056016;28;20031;-68
2024/01/26 10:39:23;;;;;;;8.88;2.20;;;;;;;;;;5059143;28;20102;-68
2024/01/26 10:41:52;;;;;;;4.05;1.83;;;;;;;;;;5054364;28;20048;-68
2024/01/26 10:44:19;;;;;;;6.57;2.30;;;;;;;;;;5057220;28;20028;-68
2024/01/26 10:46:46;;;;;;;4.40;1.73;;;;;;;;;;5056114;28;20471;-68
2024/01/26 10:49:12;;;;;;;5.85;2.20;;;;;;;;;;5054257;28;20413;-68
2024/01/26 10:51:39;;;;;;;15.88;2.70;;;;;;;;;;5055703;28;20025;-69
2024/01/26 10:54:10;;;;;;;8.25;2.78;;;;;;;;;;5055516;28;20028;-68
2024/01/26 10:56:36;;;;;;;4.53;2.25;;;;;;;;;;5058388;28;20036;-68
2024/01/26 10:59:02;;;;;;;7.10;2.55;;;;;;;;;;5053159;28;20071;-68
2024/01/26 11:01:29;;;;;;;2.38;1.70;;;;;;;;;;5053062;28;20391;-68
2024/01/26 11:03:56;;;;;;;3.22;1.80;;;;;;;;;;5024224;28;20495;-68
2024/01/26 11:06:22;;;;;;;4.93;2.15;;;;;;;;;;5049002;28;20074;-68
2024/01/26 11:08:49;;;;;;;7.00;1.85;;;;;;;;;;5053231;28;20032;-68
2024/01/26 11:11:20;;;;;;;8.68;2.35;;;;;;;;;;5054760;28;20420;-69
2024/01/26 11:13:54;;;;;;;14.57;3.25;;;;;;;;;;5049572;28;20082;-68
2024/01/26 11:16:24;;;;;;;3.65;2.30;;;;;;;;;;5060635;28;20130;-69
2024/01/26 11:18:59;;;;;;;7.05;2.08;;;;;;;;;;5056392;28;20035;-67
2024/01/26 11:21:36;;;;;;;7.78;2.38;;;;;;;;;;5059261;28;20043;-69
2024/01/26 11:24:17;;;;;;;8.57;2.45;;;;;;;;;;5045003;28;20045;-68
2024/01/26 11:26:43;;;;;;;4.10;2.55;;;;;;;;;;5047664;28;20036;-68
2024/01/26 11:29:16;;;;;;;5.47;2.10;;;;;;;;;;5058269;28;20029;-69
2024/01/26 11:31:42;;;;;;;3.50;2.40;;;;;;;;;;5065363;28;20027;-68
2024/01/26 11:34:23;;;;;;;9.18;1.95;;;;;;;;;;5064806;28;20020;-62
2024/01/26 11:37:05;;;;;;;4.13;1.98;;;;;;;;;;5059841;28;20029;-62
2024/01/26 11:39:32;;;;;;;3.35;1.88;;;;;;;;;;5058048;28;20045;-62
2024/01/26 11:41:59;;;;;;;7.95;2.15;;;;;;;;;;5054710;28;20021;-62
2024/01/26 11:44:31;;;;;;;1.80;1.70;;;;;;;;;;5057262;28;20033;-62
2024/01/26 11:46:57;;;;;;;8.02;2.65;;;;;;;;;;5059548;28;20039;-62
2024/01/26 11:49:23;;;;;;;4.13;2.00;;;;;;;;;;5061395;28;20063;-62
2024/01/26 11:51:50;;;;;;;7.82;2.78;;;;;;;;;;5059490;28;20025;-62
2024/01/26 11:54:16;;;;;;;5.13;2.05;;;;;;;;;;5059523;28;20488;-63
2024/01/26 11:56:42;;;;;;;8.02;2.53;;;;;;;;;;5059369;28;20035;-62
2024/01/26 11:59:09;;;;;;;6.15;2.05;;;;;;;;;;5056659;28;20104;-63
2024/01/26 12:01:35;;;;;;;4.32;1.75;;;;;;;;;;5060438;28;20472;-63
2024/01/26 12:04:02;;;;;;;3.40;1.92;;;;;;;;;;5058964;28;20085;-62
2024/01/26 12:06:29;;;;;;;5.07;1.95;;;;;;;;;;5058575;28;20029;-63
2024/01/26 12:08:56;;;;;;;9.32;2.10;;;;;;;;;;5051842;28;20056;-63
2024/01/26 12:11:22;;;;;;;8.52;2.03;;;;;;;;;;5062962;28;20088;-63
2024/01/26 12:13:49;;;;;;;4.68;2.10;;;;;;;;;;5051697;28;20028;-67
2024/01/26 12:16:17;;;;;;;6.97;2.28;;;;;;;;;;5059775;28;20120;-63
2024/01/26 12:18:46;;;;;;;7.25;2.08;;;;;;;;;;5060593;28;20028;-63
2024/01/26 12:21:12;;;;;;;6.32;1.70;;;;;;;;;;5066914;28;20032;-63
2024/01/26 12:23:38;;;;;;;4.88;2.85;;;;;;;;;;5053746;28;20155;-64
2024/01/26 12:26:11;;;;;;;12.30;2.40;;;;;;;;;;5056109;28;20036;-63
2024/01/26 12:28:37;;;;;;;2.20;2.00;;;;;;;;;;5048158;28;20550;-63
2024/01/26 12:31:04;;;;;;;5.53;1.85;;;;;;;;;;5052549;28;20040;-63
2024/01/26 12:33:31;;;;;;;4.40;2.28;;;;;;;;;;5053996;28;20037;-63
2024/01/26 12:36:00;;;;;;;8.18;2.00;;;;;;;;;;5052394;28;20020;-64
2024/01/26 12:38:28;;;;;;;3.95;1.73;;;;;;;;;;5056055;28;20463;-63
2024/01/26 12:40:55;;;;;;;5.25;1.98;;;;;;;;;;5061005;28;20028;-63
2024/01/26 12:43:22;;;;;;;3.92;1.80;;;;;;;;;;5059456;28;20029;-62
2024/01/26 12:45:48;;;;;;;5.90;2.22;;;;;;;;;;5057304;28;20048;-62
2024/01/26 12:48:14;;;;;;;5.43;2.00;;;;;;;;;;5063004;28;20028;-64
2024/01/26 12:50:40;;;;;;;6.35;2.03;;;;;;;;;;5059205;28;20969;-63
2024/01/26 12:53:08;;;;;;;2.65;2.00;;;;;;;;;;5059784;28;20029;-61
2024/01/26 12:55:34;;;;;;;4.05;2.05;;;;;;;;;;5058539;28;20139;-62
2024/01/26 12:58:00;;;;;;;8.88;1.85;;;;;;;;;;5051080;28;20044;-62
2024/01/26 13:00:27;;;;;;;2.28;1.75;;;;;;;;;;5059873;28;20037;-61
2024/01/26 13:02:53;;;;;;;1.67;1.58;;;;;;;;;;5059323;28;20079;-62
2024/01/26 13:05:29;;;;;;;3.33;1.95;;;;;;;;;;5056141;28;20490;-62
2024/01/26 13:07:56;;;;;;;4.03;1.83;;;;;;;;;;5055870;28;20055;-62
2024/01/26 13:10:23;;;;;;;4.32;2.22;;;;;;;;;;5059488;28;20021;-62
2024/01/26 13:12:49;;;;;;;4.90;2.20;;;;;;;;;;5056807;28;20357;-61
2024/01/26 13:15:15;;;;;;;4.80;2.10;;;;;;;;;;5054735;28;20082;-61
2024/01/26 13:17:42;;;;;;;3.90;2.15;;;;;;;;;;5051628;28;20035;-62
2024/01/26 13:20:09;;;;;;;6.35;2.38;;;;;;;;;;5055390;28;20066;-61
2024/01/26 13:22:35;;;;;;;5.95;2.15;;;;;;;;;;5055456;28;20056;-62
2024/01/26 13:25:02;;;;;;;4.40;2.10;;;;;;;;;;5054843;28;20122;-61
2024/01/26 13:27:29;;;;;;;5.50;2.42;;;;;;;;;;5057410;28;20060;-61
2024/01/26 13:29:56;;;;;;;7.00;2.92;;;;;;;;;;5062761;28;20028;-61
2024/01/26 13:32:22;;;;;;;4.68;2.05;;;;;;;;;;5060132;28;20035;-62
2024/01/26 13:34:51;;;;;;;4.38;1.80;;;;;;;;;;5061671;28;20029;-61
2024/01/26 13:37:17;;;;;;;3.88;1.73;;;;;;;;;;5064384;28;20032;-62
2024/01/26 13:39:44;;;;;;;12.30;2.75;;;;;;;;;;5059967;28;20380;-63
2024/01/26 13:42:12;;;;;;;4.82;2.25;;;;;;;;;;5061497;28;20052;-61
2024/01/26 13:44:38;;;;;;;5.75;2.35;;;;;;;;;;5055165;28;20061;-62
2024/01/26 13:47:05;;;;;;;6.53;3.20;;;;;;;;;;5054613;28;20024;-65
2024/01/26 13:49:31;;;;;;;7.30;2.63;;;;;;;;;;5052751;28;20039;-62
2024/01/26 13:51:57;;;;;;;8.07;3.00;;;;;;;;;;5047872;28;20035;-62
2024/01/26 13:54:23;;;;;;;8.23;3.70;;;;;;;;;;5054291;28;20482;-62
2024/01/26 13:56:54;;;;;;;10.77;3.83;;;;;;;;;;5058074;28;20033;-62
2024/01/26 13:59:21;;;;;;;12.30;2.95;;;;;;;;;;5056193;28;20048;-61
2024/01/26 14:01:47;;;;;;;6.43;3.10;;;;;;;;;;5056203;28;20028;-60
2024/01/26 14:04:14;;;;;;;7.75;4.05;;;;;;;;;;5063925;28;20503;-61
2024/01/26 14:06:41;;;;;;;16.20;4.03;;;;;;;;;;5053238;28;20183;-62
2024/01/26 14:09:07;;;;;;;8.63;5.45;;;;;;;;;;5056950;28;20059;-64
2024/01/26 14:11:34;;;;;;;7.55;4.35;;;;;;;;;;5061297;28;20550;-62
2024/01/26 14:14:01;;;;;;;6.93;3.22;;;;;;;;;;5058608;28;20550;-62
2024/01/26 14:16:27;;;;;;;11.18;5.35;;;;;;;;;;5062699;28;20025;-62
2024/01/26 14:18:53;;;;;;;6.18;3.60;;;;;;;;;;5051318;28;20039;-62
2024/01/26 14:21:20;;;;;;;6.53;2.95;;;;;;;;;;5060968;28;20031;-62
2024/01/26 14:23:46;;;;;;;6.97;2.67;;;;;;;;;;5059525;28;20230;-62
2024/01/26 14:26:12;;;;;;;6.05;2.67;;;;;;;;;;5058886;28;20392;-64
2024/01/26 14:28:39;;;;;;;9.45;3.63;;;;;;;;;;5051909;28;20078;-62
2024/01/26 14:31:06;;;;;;;6.07;3.60;;;;;;;;;;5054288;28;20038;-61
2024/01/26 14:33:33;;;;;;;5.93;3.13;;;;;;;;;;5054761;28;20380;-64
2024/01/26 14:36:00;;;;;;;12.77;6.05;;;;;;;;;;5053294;28;20474;-62
2024/01/26 14:38:26;;;;;;;5.28;3.22;;;;;;;;;;5061759;28;20798;-60
2024/01/26 14:40:52;;;;;;;7.15;2.88;;;;;;;;;;5060553;28;20024;-61
2024/01/26 14:43:18;;;;;;;10.18;4.10;;;;;;;;;;5046556;28;20075;-64
2024/01/26 14:45:45;;;;;;;9.65;4.43;;;;;;;;;;5058714;28;20483;-61
2024/01/26 14:48:12;;;;;;;11.05;2.60;;;;;;;;;;5061365;28;20021;-61
2024/01/26 14:50:39;;;;;;;11.05;2.95;;;;;;;;;;5053209;28;20106;-61